sensor_id;sensor_type;location;lat;lon;timestamp;pressure;altitude;pressure_sealevel;temperature;humidity
29467;BME280;60968;37.490;-122.288;2022-10-31T00:00:40;98926.53;;;18.07;53.42
29467;BME280;60968;37.490;-122.288;2022-10-31T00:03:41;98922.41;;;18.02;52.70
29467;BME280;60968;37.490;-122.288;2022-10-31T00:06:42;98926.56;;;17.87;53.83
29467;BME280;60968;37.490;-122.288;2022-10-31T00:09:43;98922.72;;;17.54;55.72
29467;BME280;60968;37.490;-122.288;2022-10-31T00:12:45;98913.31;;;17.28;55.68
29467;BME280;60968;37.490;-122.288;2022-10-31T00:15:47;98916.69;;;17.11;54.66
29467;BME280;60968;37.490;-122.288;2022-10-31T00:18:59;98917.06;;;17.02;51.45
29467;BME280;60968;37.490;-122.288;2022-10-31T00:22:00;98912.88;;;16.97;50.70
29467;BME280;60968;37.490;-122.288;2022-10-31T00:25:01;98918.13;;;16.97;48.50
29467;BME280;60968;37.490;-122.288;2022-10-31T00:28:03;98919.13;;;16.95;47.81
29467;BME280;60968;37.490;-122.288;2022-10-31T00:31:08;98915.00;;;16.88;47.73
29467;BME280;60968;37.490;-122.288;2022-10-31T00:34:09;98914.41;;;16.81;47.15
29467;BME280;60968;37.490;-122.288;2022-10-31T00:37:10;98923.47;;;16.74;47.07
29467;BME280;60968;37.490;-122.288;2022-10-31T00:40:13;98913.16;;;16.68;46.92
29467;BME280;60968;37.490;-122.288;2022-10-31T00:43:14;98910.94;;;16.58;47.25
29467;BME280;60968;37.490;-122.288;2022-10-31T00:46:15;98912.03;;;16.53;47.87
29467;BME280;60968;37.490;-122.288;2022-10-31T00:49:17;98913.34;;;16.41;48.57
29467;BME280;60968;37.490;-122.288;2022-10-31T00:52:18;98916.25;;;16.35;48.44
29467;BME280;60968;37.490;-122.288;2022-10-31T00:55:19;98914.03;;;16.24;48.72
29467;BME280;60968;37.490;-122.288;2022-10-31T00:58:22;98913.41;;;16.17;47.78
29467;BME280;60968;37.490;-122.288;2022-10-31T01:01:23;98915.06;;;16.20;47.10
29467;BME280;60968;37.490;-122.288;2022-10-31T01:04:25;98905.41;;;16.20;46.57
29467;BME280;60968;37.490;-122.288;2022-10-31T01:07:26;98908.88;;;16.21;46.19
29467;BME280;60968;37.490;-122.288;2022-10-31T01:10:29;98911.72;;;16.16;45.43
29467;BME280;60968;37.490;-122.288;2022-10-31T01:13:30;98909.75;;;16.21;44.67
29467;BME280;60968;37.490;-122.288;2022-10-31T01:16:31;98912.38;;;16.21;43.58
29467;BME280;60968;37.490;-122.288;2022-10-31T01:19:32;98907.03;;;16.23;42.98
29467;BME280;60968;37.490;-122.288;2022-10-31T01:22:34;98907.34;;;16.15;43.63
29467;BME280;60968;37.490;-122.288;2022-10-31T01:25:36;98900.63;;;16.08;43.11
29467;BME280;60968;37.490;-122.288;2022-10-31T01:28:42;98908.63;;;16.05;43.23
29467;BME280;60968;37.490;-122.288;2022-10-31T01:31:44;98915.00;;;15.98;43.93
29467;BME280;60968;37.490;-122.288;2022-10-31T01:34:45;98918.25;;;15.82;45.20
29467;BME280;60968;37.490;-122.288;2022-10-31T01:37:45;98917.72;;;15.71;46.73
29467;BME280;60968;37.490;-122.288;2022-10-31T01:40:49;98926.97;;;15.57;47.61
29467;BME280;60968;37.490;-122.288;2022-10-31T01:44:02;98924.78;;;15.45;48.12
29467;BME280;60968;37.490;-122.288;2022-10-31T01:47:13;98931.38;;;15.32;50.52
29467;BME280;60968;37.490;-122.288;2022-10-31T01:53:25;98937.75;;;14.98;55.89
29467;BME280;60968;37.490;-122.288;2022-10-31T01:56:30;98937.38;;;14.83;54.93
29467;BME280;60968;37.490;-122.288;2022-10-31T01:59:36;98934.41;;;14.67;56.72
29467;BME280;60968;37.490;-122.288;2022-10-31T02:02:42;98942.56;;;14.56;58.48
29467;BME280;60968;37.490;-122.288;2022-10-31T02:05:46;98941.31;;;14.40;56.74
29467;BME280;60968;37.490;-122.288;2022-10-31T02:08:47;98942.97;;;14.14;56.87
29467;BME280;60968;37.490;-122.288;2022-10-31T02:11:51;98943.25;;;14.05;57.12
29467;BME280;60968;37.490;-122.288;2022-10-31T02:14:52;98946.09;;;13.97;57.44
29467;BME280;60968;37.490;-122.288;2022-10-31T02:18:02;98951.81;;;13.80;58.00
29467;BME280;60968;37.490;-122.288;2022-10-31T02:21:17;98950.59;;;13.61;58.05
29467;BME280;60968;37.490;-122.288;2022-10-31T02:28:13;98951.88;;;13.46;58.77
29467;BME280;60968;37.490;-122.288;2022-10-31T02:32:07;98952.47;;;13.55;57.79
29467;BME280;60968;37.490;-122.288;2022-10-31T02:35:10;98949.44;;;13.71;56.27
29467;BME280;60968;37.490;-122.288;2022-10-31T02:45:32;98962.72;;;13.65;57.76
29467;BME280;60968;37.490;-122.288;2022-10-31T02:48:33;98965.78;;;13.48;57.82
29467;BME280;60968;37.490;-122.288;2022-10-31T02:51:39;98970.59;;;13.29;58.05
29467;BME280;60968;37.490;-122.288;2022-10-31T02:54:40;98966.72;;;13.11;60.22
29467;BME280;60968;37.490;-122.288;2022-10-31T02:57:41;98972.81;;;13.11;60.67
29467;BME280;60968;37.490;-122.288;2022-10-31T03:08:11;98962.13;;;13.19;58.67
29467;BME280;60968;37.490;-122.288;2022-10-31T03:11:18;98965.94;;;13.07;59.06
29467;BME280;60968;37.490;-122.288;2022-10-31T03:14:48;98960.00;;;13.00;58.30
29467;BME280;60968;37.490;-122.288;2022-10-31T03:21:32;98954.78;;;12.99;58.21
29467;BME280;60968;37.490;-122.288;2022-10-31T03:24:39;98954.13;;;12.91;57.71
29467;BME280;60968;37.490;-122.288;2022-10-31T03:27:42;98963.00;;;12.83;56.72
29467;BME280;60968;37.490;-122.288;2022-10-31T03:30:45;98961.34;;;12.81;57.36
29467;BME280;60968;37.490;-122.288;2022-10-31T03:33:47;98966.56;;;12.81;58.01
29467;BME280;60968;37.490;-122.288;2022-10-31T03:36:53;98962.09;;;12.86;58.11
29467;BME280;60968;37.490;-122.288;2022-10-31T03:39:58;98964.63;;;12.89;59.60
29467;BME280;60968;37.490;-122.288;2022-10-31T03:43:05;98968.16;;;12.86;59.74
29467;BME280;60968;37.490;-122.288;2022-10-31T03:46:08;98969.09;;;12.85;59.75
29467;BME280;60968;37.490;-122.288;2022-10-31T03:49:12;98961.13;;;12.90;60.05
29467;BME280;60968;37.490;-122.288;2022-10-31T03:52:28;98964.63;;;12.89;61.64
29467;BME280;60968;37.490;-122.288;2022-10-31T03:59:30;98979.75;;;12.76;62.38
29467;BME280;60968;37.490;-122.288;2022-10-31T04:02:41;98972.06;;;12.70;64.47
29467;BME280;60968;37.490;-122.288;2022-10-31T04:05:46;98974.13;;;12.56;66.01
29467;BME280;60968;37.490;-122.288;2022-10-31T04:08:56;98976.25;;;12.38;68.72
29467;BME280;60968;37.490;-122.288;2022-10-31T04:12:00;98973.22;;;12.17;70.89
29467;BME280;60968;37.490;-122.288;2022-10-31T04:15:06;98976.91;;;12.07;74.09
29467;BME280;60968;37.490;-122.288;2022-10-31T04:18:08;98975.25;;;12.03;75.63
29467;BME280;60968;37.490;-122.288;2022-10-31T04:21:12;98979.75;;;11.96;78.79
29467;BME280;60968;37.490;-122.288;2022-10-31T04:24:13;98981.00;;;11.75;81.92
29467;BME280;60968;37.490;-122.288;2022-10-31T04:27:14;98979.56;;;11.60;84.12
29467;BME280;60968;37.490;-122.288;2022-10-31T04:30:14;98991.91;;;11.50;86.19
29467;BME280;60968;37.490;-122.288;2022-10-31T04:33:16;98991.94;;;11.47;86.07
29467;BME280;60968;37.490;-122.288;2022-10-31T04:36:17;98988.44;;;11.48;86.15
29467;BME280;60968;37.490;-122.288;2022-10-31T04:39:18;98991.94;;;11.49;85.97
29467;BME280;60968;37.490;-122.288;2022-10-31T04:42:19;98986.72;;;11.49;88.69
29467;BME280;60968;37.490;-122.288;2022-10-31T04:45:22;98987.50;;;11.53;92.47
29467;BME280;60968;37.490;-122.288;2022-10-31T04:48:24;98982.25;;;11.54;94.40
29467;BME280;60968;37.490;-122.288;2022-10-31T04:51:25;98980.53;;;11.55;97.54
29467;BME280;60968;37.490;-122.288;2022-10-31T04:54:28;98976.00;;;11.63;100.00
29467;BME280;60968;37.490;-122.288;2022-10-31T04:57:29;98982.00;;;11.68;100.00
29467;BME280;60968;37.490;-122.288;2022-10-31T05:00:31;98982.97;;;11.62;100.00
29467;BME280;60968;37.490;-122.288;2022-10-31T05:03:32;98985.66;;;11.59;100.00
29467;BME280;60968;37.490;-122.288;2022-10-31T05:06:33;98984.78;;;11.60;100.00
29467;BME280;60968;37.490;-122.288;2022-10-31T05:09:34;98991.78;;;11.57;100.00
29467;BME280;60968;37.490;-122.288;2022-10-31T05:12:35;98986.72;;;11.47;100.00
29467;BME280;60968;37.490;-122.288;2022-10-31T05:15:39;98989.44;;;11.41;100.00
29467;BME280;60968;37.490;-122.288;2022-10-31T05:18:40;98993.91;;;11.35;100.00
29467;BME280;60968;37.490;-122.288;2022-10-31T05:21:41;98998.22;;;11.37;100.00
29467;BME280;60968;37.490;-122.288;2022-10-31T05:24:43;98993.84;;;11.39;100.00
29467;BME280;60968;37.490;-122.288;2022-10-31T05:27:47;98993.78;;;11.42;100.00
29467;BME280;60968;37.490;-122.288;2022-10-31T05:30:50;98990.41;;;11.37;100.00
29467;BME280;60968;37.490;-122.288;2022-10-31T05:33:51;98998.34;;;11.31;100.00
29467;BME280;60968;37.490;-122.288;2022-10-31T05:36:53;98998.41;;;11.28;100.00
29467;BME280;60968;37.490;-122.288;2022-10-31T05:39:54;98993.88;;;11.36;100.00
29467;BME280;60968;37.490;-122.288;2022-10-31T05:42:57;98998.06;;;11.46;100.00
29467;BME280;60968;37.490;-122.288;2022-10-31T05:45:58;99000.41;;;11.62;100.00
29467;BME280;60968;37.490;-122.288;2022-10-31T05:49:01;98996.84;;;11.66;100.00
29467;BME280;60968;37.490;-122.288;2022-10-31T05:52:02;99003.72;;;11.70;100.00
29467;BME280;60968;37.490;-122.288;2022-10-31T05:55:04;99009.03;;;11.64;100.00
29467;BME280;60968;37.490;-122.288;2022-10-31T05:58:04;99017.94;;;11.54;100.00
29467;BME280;60968;37.490;-122.288;2022-10-31T06:01:05;99018.97;;;11.43;100.00
29467;BME280;60968;37.490;-122.288;2022-10-31T06:04:07;99010.28;;;11.43;100.00
29467;BME280;60968;37.490;-122.288;2022-10-31T06:07:08;99002.50;;;11.41;100.00
29467;BME280;60968;37.490;-122.288;2022-10-31T06:10:10;99001.78;;;11.33;100.00
29467;BME280;60968;37.490;-122.288;2022-10-31T06:13:11;99004.59;;;11.21;100.00
29467;BME280;60968;37.490;-122.288;2022-10-31T06:16:12;99005.66;;;11.09;100.00
29467;BME280;60968;37.490;-122.288;2022-10-31T06:19:13;99004.81;;;11.08;100.00
29467;BME280;60968;37.490;-122.288;2022-10-31T06:22:14;99003.94;;;11.08;100.00
29467;BME280;60968;37.490;-122.288;2022-10-31T06:25:15;99008.34;;;11.04;100.00
29467;BME280;60968;37.490;-122.288;2022-10-31T06:28:16;98993.59;;;11.02;100.00
29467;BME280;60968;37.490;-122.288;2022-10-31T06:31:19;98994.47;;;11.02;100.00
29467;BME280;60968;37.490;-122.288;2022-10-31T06:34:22;98994.56;;;10.96;100.00
29467;BME280;60968;37.490;-122.288;2022-10-31T06:37:22;98981.63;;;10.88;100.00
29467;BME280;60968;37.490;-122.288;2022-10-31T06:40:23;98984.34;;;10.82;100.00
29467;BME280;60968;37.490;-122.288;2022-10-31T06:43:25;98974.13;;;10.68;100.00
29467;BME280;60968;37.490;-122.288;2022-10-31T06:46:28;98980.38;;;10.58;100.00
29467;BME280;60968;37.490;-122.288;2022-10-31T06:49:28;98972.63;;;10.52;100.00
29467;BME280;60968;37.490;-122.288;2022-10-31T06:52:29;98966.66;;;10.46;100.00
29467;BME280;60968;37.490;-122.288;2022-10-31T06:55:31;98969.25;;;10.46;100.00
29467;BME280;60968;37.490;-122.288;2022-10-31T06:58:32;98969.25;;;10.46;100.00
29467;BME280;60968;37.490;-122.288;2022-10-31T07:01:33;98969.28;;;10.45;100.00
29467;BME280;60968;37.490;-122.288;2022-10-31T07:04:34;98959.66;;;10.49;100.00
29467;BME280;60968;37.490;-122.288;2022-10-31T07:07:36;98951.00;;;10.48;100.00
29467;BME280;60968;37.490;-122.288;2022-10-31T07:10:38;98956.25;;;10.43;100.00
29467;BME280;60968;37.490;-122.288;2022-10-31T07:13:39;98951.13;;;10.39;100.00
29467;BME280;60968;37.490;-122.288;2022-10-31T07:16:41;98959.84;;;10.33;100.00
29467;BME280;60968;37.490;-122.288;2022-10-31T07:19:42;98957.25;;;10.35;100.00
29467;BME280;60968;37.490;-122.288;2022-10-31T07:22:44;98959.84;;;10.35;100.00
29467;BME280;60968;37.490;-122.288;2022-10-31T07:25:45;98954.59;;;10.38;100.00
29467;BME280;60968;37.490;-122.288;2022-10-31T07:28:47;98960.75;;;10.35;100.00
29467;BME280;60968;37.490;-122.288;2022-10-31T07:31:48;98958.97;;;10.36;100.00
29467;BME280;60968;37.490;-122.288;2022-10-31T07:34:52;98950.31;;;10.35;100.00
29467;BME280;60968;37.490;-122.288;2022-10-31T07:37:54;98958.09;;;10.34;100.00
29467;BME280;60968;37.490;-122.288;2022-10-31T07:40:55;98957.25;;;10.33;100.00
29467;BME280;60968;37.490;-122.288;2022-10-31T07:43:57;98946.94;;;10.27;100.00
29467;BME280;60968;37.490;-122.288;2022-10-31T07:46:58;98940.00;;;10.26;100.00
29467;BME280;60968;37.490;-122.288;2022-10-31T07:49:59;98943.50;;;10.23;100.00
29467;BME280;60968;37.490;-122.288;2022-10-31T07:53:10;98945.25;;;10.23;100.00
29467;BME280;60968;37.490;-122.288;2022-10-31T07:56:14;98939.09;;;10.28;100.00
29467;BME280;60968;37.490;-122.288;2022-10-31T07:59:16;98932.88;;;10.40;100.00
29467;BME280;60968;37.490;-122.288;2022-10-31T08:02:17;98925.94;;;10.41;100.00
29467;BME280;60968;37.490;-122.288;2022-10-31T08:05:19;98918.84;;;10.51;100.00
29467;BME280;60968;37.490;-122.288;2022-10-31T08:08:20;98911.03;;;10.51;100.00
29467;BME280;60968;37.490;-122.288;2022-10-31T08:11:20;98910.16;;;10.49;100.00
29467;BME280;60968;37.490;-122.288;2022-10-31T08:14:21;98910.09;;;10.55;100.00
29467;BME280;60968;37.490;-122.288;2022-10-31T08:17:22;98920.47;;;10.58;100.00
29467;BME280;60968;37.490;-122.288;2022-10-31T08:20:23;98911.81;;;10.54;100.00
29467;BME280;60968;37.490;-122.288;2022-10-31T08:23:24;98916.28;;;10.46;100.00
29467;BME280;60968;37.490;-122.288;2022-10-31T08:26:25;98913.81;;;10.38;100.00
29467;BME280;60968;37.490;-122.288;2022-10-31T08:29:26;98901.59;;;10.40;100.00
29467;BME280;60968;37.490;-122.288;2022-10-31T08:32:27;98914.69;;;10.37;100.00
29467;BME280;60968;37.490;-122.288;2022-10-31T08:35:28;98902.53;;;10.36;100.00
29467;BME280;60968;37.490;-122.288;2022-10-31T08:38:30;98910.31;;;10.41;100.00
29467;BME280;60968;37.490;-122.288;2022-10-31T08:41:31;98914.72;;;10.33;100.00
29467;BME280;60968;37.490;-122.288;2022-10-31T08:44:33;98917.34;;;10.31;100.00
29467;BME280;60968;37.490;-122.288;2022-10-31T08:47:35;98911.25;;;10.35;100.00
29467;BME280;60968;37.490;-122.288;2022-10-31T08:50:36;98910.47;;;10.27;100.00
29467;BME280;60968;37.490;-122.288;2022-10-31T08:53:37;98902.72;;;10.24;100.00
29467;BME280;60968;37.490;-122.288;2022-10-31T08:56:40;98894.88;;;10.22;100.00
29467;BME280;60968;37.490;-122.288;2022-10-31T08:59:42;98897.63;;;10.15;100.00
29467;BME280;60968;37.490;-122.288;2022-10-31T09:02:44;98898.50;;;10.13;100.00
29467;BME280;60968;37.490;-122.288;2022-10-31T09:05:46;98888.94;;;10.12;100.00
29467;BME280;60968;37.490;-122.288;2022-10-31T09:08:49;98886.34;;;10.12;100.00
29467;BME280;60968;37.490;-122.288;2022-10-31T09:11:51;98877.72;;;10.10;100.00
29467;BME280;60968;37.490;-122.288;2022-10-31T09:14:52;98880.19;;;10.18;100.00
29467;BME280;60968;37.490;-122.288;2022-10-31T09:17:53;98874.97;;;10.21;100.00
29467;BME280;60968;37.490;-122.288;2022-10-31T09:20:58;98882.81;;;10.20;100.00
29467;BME280;60968;37.490;-122.288;2022-10-31T09:23:59;98886.22;;;10.22;100.00
29467;BME280;60968;37.490;-122.288;2022-10-31T09:27:01;98876.66;;;10.24;100.00
29467;BME280;60968;37.490;-122.288;2022-10-31T09:30:02;98883.56;;;10.25;100.00
29467;BME280;60968;37.490;-122.288;2022-10-31T09:33:09;98880.16;;;10.23;100.00
29467;BME280;60968;37.490;-122.288;2022-10-31T09:36:10;98881.06;;;10.19;100.00
29467;BME280;60968;37.490;-122.288;2022-10-31T09:39:12;98868.09;;;10.17;100.00
29467;BME280;60968;37.490;-122.288;2022-10-31T09:49:22;98856.75;;;10.21;100.00
29467;BME280;60968;37.490;-122.288;2022-10-31T09:52:30;98856.72;;;10.23;100.00
29467;BME280;60968;37.490;-122.288;2022-10-31T09:55:40;98862.00;;;10.17;100.00
29467;BME280;60968;37.490;-122.288;2022-10-31T09:58:46;98856.78;;;10.17;100.00
29467;BME280;60968;37.490;-122.288;2022-10-31T10:01:53;98848.16;;;10.15;100.00
29467;BME280;60968;37.490;-122.288;2022-10-31T10:05:04;98855.09;;;10.16;100.00
29467;BME280;60968;37.490;-122.288;2022-10-31T10:21:32;98837.06;;;10.02;100.00
29467;BME280;60968;37.490;-122.288;2022-10-31T10:28:13;98826.72;;;9.95;100.00
29467;BME280;60968;37.490;-122.288;2022-10-31T10:31:23;98818.06;;;9.95;100.00
29467;BME280;60968;37.490;-122.288;2022-10-31T10:34:31;98821.53;;;9.95;100.00
29467;BME280;60968;37.490;-122.288;2022-10-31T10:37:39;98814.50;;;10.02;100.00
29467;BME280;60968;37.490;-122.288;2022-10-31T10:40:43;98820.56;;;10.01;100.00
29467;BME280;60968;37.490;-122.288;2022-10-31T10:43:44;98812.88;;;9.95;100.00
29467;BME280;60968;37.490;-122.288;2022-10-31T10:46:56;98806.78;;;9.96;100.00
29467;BME280;60968;37.490;-122.288;2022-10-31T10:50:06;98799.03;;;9.93;100.00
29467;BME280;60968;37.490;-122.288;2022-10-31T10:57:19;98794.78;;;9.86;100.00
29467;BME280;60968;37.490;-122.288;2022-10-31T10:59:54;98787.09;;;9.78;100.00
29467;BME280;60968;37.490;-122.288;2022-10-31T11:02:57;98788.00;;;9.74;100.00
29467;BME280;60968;37.490;-122.288;2022-10-31T11:05:59;98797.66;;;9.66;100.00
29467;BME280;60968;37.490;-122.288;2022-10-31T11:09:10;98796.81;;;9.65;100.00
29467;BME280;60968;37.490;-122.288;2022-10-31T11:12:30;98796.81;;;9.65;100.00
29467;BME280;60968;37.490;-122.288;2022-10-31T11:15:37;98793.41;;;9.60;100.00
29467;BME280;60968;37.490;-122.288;2022-10-31T11:18:49;98787.44;;;9.52;100.00
29467;BME280;60968;37.490;-122.288;2022-10-31T11:21:50;98781.41;;;9.50;100.00
29467;BME280;60968;37.490;-122.288;2022-10-31T11:24:50;98780.59;;;9.44;100.00
29467;BME280;60968;37.490;-122.288;2022-10-31T11:28:07;98772.75;;;9.48;100.00
29467;BME280;60968;37.490;-122.288;2022-10-31T11:31:12;98777.13;;;9.46;100.00
29467;BME280;60968;37.490;-122.288;2022-10-31T11:34:33;98787.53;;;9.46;100.00
29467;BME280;60968;37.490;-122.288;2022-10-31T11:37:41;98776.25;;;9.47;100.00
29467;BME280;60968;37.490;-122.288;2022-10-31T11:40:56;98774.50;;;9.49;100.00
29467;BME280;60968;37.490;-122.288;2022-10-31T11:44:02;98772.75;;;9.49;100.00
29467;BME280;60968;37.490;-122.288;2022-10-31T11:47:05;98767.53;;;9.51;100.00
29467;BME280;60968;37.490;-122.288;2022-10-31T11:50:15;98760.53;;;9.54;100.00
29467;BME280;60968;37.490;-122.288;2022-10-31T11:53:33;98765.66;;;9.59;100.00
29467;BME280;60968;37.490;-122.288;2022-10-31T11:56:39;98764.78;;;9.61;100.00
29467;BME280;60968;37.490;-122.288;2022-10-31T11:59:51;98758.66;;;9.64;100.00
29467;BME280;60968;37.490;-122.288;2022-10-31T12:06:50;98754.28;;;9.68;100.00
29467;BME280;60968;37.490;-122.288;2022-10-31T12:09:44;98760.28;;;9.71;100.00
29467;BME280;60968;37.490;-122.288;2022-10-31T12:13:19;98756.81;;;9.72;100.00
29467;BME280;60968;37.490;-122.288;2022-10-31T12:16:42;98762.88;;;9.73;100.00
29467;BME280;60968;37.490;-122.288;2022-10-31T12:19:51;98760.25;;;9.74;100.00
29467;BME280;60968;37.490;-122.288;2022-10-31T12:26:22;98754.97;;;9.81;100.00
29467;BME280;60968;37.490;-122.288;2022-10-31T12:29:45;98754.06;;;9.82;100.00
29467;BME280;60968;37.490;-122.288;2022-10-31T12:46:25;98751.03;;;10.09;100.00
29467;BME280;60968;37.490;-122.288;2022-10-31T12:49:54;98763.06;;;10.17;100.00
29467;BME280;60968;37.490;-122.288;2022-10-31T12:56:40;98763.03;;;10.18;100.00
29467;BME280;60968;37.490;-122.288;2022-10-31T12:59:53;98763.13;;;10.12;100.00
29467;BME280;60968;37.490;-122.288;2022-10-31T13:03:36;98758.88;;;10.08;100.00
29467;BME280;60968;37.490;-122.288;2022-10-31T13:06:53;98756.47;;;9.94;100.00
29467;BME280;60968;37.490;-122.288;2022-10-31T13:10:15;98752.34;;;9.82;100.00
29467;BME280;60968;37.490;-122.288;2022-10-31T13:13:21;98748.22;;;9.67;100.00
29467;BME280;60968;37.490;-122.288;2022-10-31T13:16:37;98739.63;;;9.62;100.00
29467;BME280;60968;37.490;-122.288;2022-10-31T13:19:42;98743.97;;;9.61;100.00
29467;BME280;60968;37.490;-122.288;2022-10-31T13:22:51;98736.19;;;9.60;100.00
29467;BME280;60968;37.490;-122.288;2022-10-31T13:25:55;98736.09;;;9.66;100.00
29467;BME280;60968;37.490;-122.288;2022-10-31T13:29:13;98741.25;;;9.69;100.00
29467;BME280;60968;37.490;-122.288;2022-10-31T13:32:16;98753.47;;;9.64;100.00
29467;BME280;60968;37.490;-122.288;2022-10-31T13:35:30;98745.72;;;9.61;100.00
29467;BME280;60968;37.490;-122.288;2022-10-31T13:38:41;98740.59;;;9.53;100.00
29467;BME280;60968;37.490;-122.288;2022-10-31T13:45:11;98741.56;;;9.48;100.00
29467;BME280;60968;37.490;-122.288;2022-10-31T13:48:18;98742.41;;;9.50;100.00
29467;BME280;60968;37.490;-122.288;2022-10-31T13:51:28;98740.59;;;9.56;100.00
29467;BME280;60968;37.490;-122.288;2022-10-31T13:54:34;98737.03;;;9.60;100.00
29467;BME280;60968;37.490;-122.288;2022-10-31T13:57:38;98718.81;;;9.62;100.00
29467;BME280;60968;37.490;-122.288;2022-10-31T14:00:43;98724.78;;;9.69;100.00
29467;BME280;60968;37.490;-122.288;2022-10-31T14:03:46;98722.13;;;9.73;100.00
29467;BME280;60968;37.490;-122.288;2022-10-31T14:06:54;98712.44;;;9.82;100.00
29467;BME280;60968;37.490;-122.288;2022-10-31T14:13:37;98721.09;;;9.84;100.00
29467;BME280;60968;37.490;-122.288;2022-10-31T14:16:43;98721.00;;;9.88;100.00
29467;BME280;60968;37.490;-122.288;2022-10-31T14:19:58;98722.69;;;9.91;100.00
29467;BME280;60968;37.490;-122.288;2022-10-31T14:23:11;98727.84;;;9.94;100.00
29467;BME280;60968;37.490;-122.288;2022-10-31T14:29:32;98722.47;;;10.05;100.00
29467;BME280;60968;37.490;-122.288;2022-10-31T14:32:33;98722.47;;;10.05;100.00
29467;BME280;60968;37.490;-122.288;2022-10-31T14:36:06;98725.94;;;10.05;100.00
29467;BME280;60968;37.490;-122.288;2022-10-31T14:46:37;98718.81;;;10.15;100.00
29467;BME280;60968;37.490;-122.288;2022-10-31T14:52:57;98712.63;;;10.22;100.00
29467;BME280;60968;37.490;-122.288;2022-10-31T14:56:01;98719.50;;;10.26;100.00
29467;BME280;60968;37.490;-122.288;2022-10-31T14:59:07;98707.22;;;10.36;100.00
29467;BME280;60968;37.490;-122.288;2022-10-31T15:02:30;98712.38;;;10.38;100.00
29467;BME280;60968;37.490;-122.288;2022-10-31T15:05:35;98711.38;;;10.46;100.00
29467;BME280;60968;37.490;-122.288;2022-10-31T15:08:47;98711.13;;;10.60;100.00
29467;BME280;60968;37.490;-122.288;2022-10-31T15:11:48;98703.06;;;10.71;100.00
29467;BME280;60968;37.490;-122.288;2022-10-31T15:14:49;98711.44;;;10.89;100.00
29467;BME280;60968;37.490;-122.288;2022-10-31T15:17:55;98721.53;;;11.06;100.00
29467;BME280;60968;37.490;-122.288;2022-10-31T15:20:57;98736.06;;;11.16;100.00
29467;BME280;60968;37.490;-122.288;2022-10-31T15:24:00;98728.03;;;11.27;100.00
29467;BME280;60968;37.490;-122.288;2022-10-31T15:27:04;98731.19;;;11.41;100.00
29467;BME280;60968;37.490;-122.288;2022-10-31T15:30:26;98725.63;;;11.57;100.00
29467;BME280;60968;37.490;-122.288;2022-10-31T15:33:41;98723.47;;;11.74;100.00
29467;BME280;60968;37.490;-122.288;2022-10-31T15:36:49;98719.56;;;11.94;100.00
29467;BME280;60968;37.490;-122.288;2022-10-31T15:39:51;98728.22;;;11.96;100.00
29467;BME280;60968;37.490;-122.288;2022-10-31T15:43:04;98732.75;;;11.88;100.00
29467;BME280;60968;37.490;-122.288;2022-10-31T15:46:08;98735.78;;;11.69;100.00
29467;BME280;60968;37.490;-122.288;2022-10-31T15:49:41;98729.56;;;11.75;100.00
29467;BME280;60968;37.490;-122.288;2022-10-31T15:52:46;98730.81;;;11.58;100.00
29467;BME280;60968;37.490;-122.288;2022-10-31T15:55:59;98736.97;;;11.54;100.00
29467;BME280;60968;37.490;-122.288;2022-10-31T15:59:01;98737.16;;;11.46;100.00
29467;BME280;60968;37.490;-122.288;2022-10-31T16:02:10;98744.81;;;11.54;100.00
29467;BME280;60968;37.490;-122.288;2022-10-31T16:05:16;98741.75;;;11.74;100.00
29467;BME280;60968;37.490;-122.288;2022-10-31T16:11:35;98733.00;;;12.14;100.00
29467;BME280;60968;37.490;-122.288;2022-10-31T16:14:39;98743.09;;;12.28;100.00
29467;BME280;60968;37.490;-122.288;2022-10-31T16:17:43;98734.94;;;12.41;100.00
29467;BME280;60968;37.490;-122.288;2022-10-31T16:20:51;98730.50;;;12.44;100.00
29467;BME280;60968;37.490;-122.288;2022-10-31T16:23:57;98734.25;;;12.67;100.00
29467;BME280;60968;37.490;-122.288;2022-10-31T16:27:13;98739.59;;;12.62;100.00
29467;BME280;60968;37.490;-122.288;2022-10-31T16:30:38;98731.00;;;12.59;100.00
29467;BME280;60968;37.490;-122.288;2022-10-31T16:33:41;98723.22;;;12.56;100.00
29467;BME280;60968;37.490;-122.288;2022-10-31T16:36:42;98727.03;;;12.44;100.00
29467;BME280;60968;37.490;-122.288;2022-10-31T16:39:43;98727.22;;;12.36;100.00
29467;BME280;60968;37.490;-122.288;2022-10-31T16:42:46;98713.97;;;12.44;100.00
29467;BME280;60968;37.490;-122.288;2022-10-31T16:45:50;98703.09;;;12.26;100.00
29467;BME280;60968;37.490;-122.288;2022-10-31T16:48:52;98705.59;;;12.31;100.00
29467;BME280;60968;37.490;-122.288;2022-10-31T16:51:53;98714.53;;;12.21;100.00
29467;BME280;60968;37.490;-122.288;2022-10-31T16:54:53;98729.66;;;12.08;100.00
29467;BME280;60968;37.490;-122.288;2022-10-31T16:57:56;98721.75;;;12.12;100.00
29467;BME280;60968;37.490;-122.288;2022-10-31T17:01:01;98709.38;;;12.19;100.00
29467;BME280;60968;37.490;-122.288;2022-10-31T17:04:02;98704.19;;;12.17;100.00
29467;BME280;60968;37.490;-122.288;2022-10-31T17:07:02;98713.16;;;12.07;100.00
29467;BME280;60968;37.490;-122.288;2022-10-31T17:10:07;98699.66;;;12.24;100.00
29467;BME280;60968;37.490;-122.288;2022-10-31T17:13:13;98693.94;;;12.43;100.00
29467;BME280;60968;37.490;-122.288;2022-10-31T17:16:16;98694.88;;;12.73;100.00
29467;BME280;60968;37.490;-122.288;2022-10-31T17:19:18;98704.19;;;13.13;100.00
29467;BME280;60968;37.490;-122.288;2022-10-31T17:22:21;98701.47;;;13.75;100.00